Pagina principale
METAR-TAF:

METAR-TAF

Aeroporti :

Aeroporto Internazionale del Bahrein

Bahrain, Bahrain

latitudine: 26-16N, longitudine: 050-39E, altezza: 2 m

Osservazione

Il bollettino è stato emesso 27 minuti fa, alle 12:30 UTC
Vento 16 kt da nord/nord-ovest
Temperature 38°C
Umidità 33%
Pressione 998 hPa
Visibilità 10 km o più
nessuna nube inferiore a 1500 m e nessun cumulonembo

METAR: OBBI 151230Z 33016KT CAVOK 38/19 Q0998 NOSIG

Ora: 15:57 (12:57 UTC)

Previsione

Il bollettino è stato emesso 1 ora e 57 minuti fa, alle 11:00 UTC
Previsione valida dal 15 alle 12 UTC al 16 alle 18 UTC
Vento 13 kt da nord/nord-ovest con raffiche fino a 23 kt
Visibilità 10 km o più
nessuna nube inferiore a 1500 m e nessun cumulonembo
Evoluzione graduale
dal 15 alle 14 UTC al 15 alle 16 UTC
Vento 8 kt da nord-ovest

TAF: OBBI 151100Z 1512/1618 33013G23KT CAVOK BECMG 1514/1516 32008KT

Osservazioni e previsioni meteorologiche di più di 4000 aeroporti (messaggi METAR e TAF).

Le stazioni disponibili sono rappresentate dai dischi gialli e rossi sulla carta.

Puntare il mouse per vedere il nome della stazione.

Clicca sopra per visualizzare le osservazioni e previsioni meteorologiche.

Per cambiare la mappa : fare clic sui pulsanti verdi con una croce nera per ingrandire, il pulsante verde con un trattino per diminuire, o sulla freccia verde per le mappe adiacenti.


METAR-TAF: